sensor_id;sensor_type;location;lat;lon;timestamp;P1;durP1;ratioP1;P2;durP2;ratioP2
62584;SDS011;48643;51.670;5.808;2024-02-21T00:00:27;20.17;;;7.00;;
62584;SDS011;48643;51.670;5.808;2024-02-21T00:02:53;25.40;;;7.57;;
62584;SDS011;48643;51.670;5.808;2024-02-21T00:05:22;18.02;;;6.93;;
62584;SDS011;48643;51.670;5.808;2024-02-21T00:07:49;17.52;;;7.55;;
62584;SDS011;48643;51.670;5.808;2024-02-21T00:10:16;19.40;;;7.00;;
62584;SDS011;48643;51.670;5.808;2024-02-21T00:12:44;19.40;;;6.70;;
62584;SDS011;48643;51.670;5.808;2024-02-21T00:15:11;20.17;;;7.13;;
62584;SDS011;48643;51.670;5.808;2024-02-21T00:17:38;18.67;;;7.22;;
62584;SDS011;48643;51.670;5.808;2024-02-21T00:20:06;16.67;;;6.97;;
62584;SDS011;48643;51.670;5.808;2024-02-21T00:22:33;20.77;;;6.53;;
62584;SDS011;48643;51.670;5.808;2024-02-21T00:25:00;17.00;;;6.53;;
62584;SDS011;48643;51.670;5.808;2024-02-21T00:27:29;23.38;;;6.95;;
62584;SDS011;48643;51.670;5.808;2024-02-21T00:29:56;18.92;;;6.72;;
62584;SDS011;48643;51.670;5.808;2024-02-21T00:32:23;17.02;;;6.95;;
62584;SDS011;48643;51.670;5.808;2024-02-21T00:34:50;17.60;;;7.00;;
62584;SDS011;48643;51.670;5.808;2024-02-21T00:37:17;16.83;;;6.88;;
62584;SDS011;48643;51.670;5.808;2024-02-21T00:39:44;19.13;;;6.88;;
62584;SDS011;48643;51.670;5.808;2024-02-21T00:42:11;16.38;;;6.75;;
62584;SDS011;48643;51.670;5.808;2024-02-21T00:44:38;23.02;;;7.22;;
62584;SDS011;48643;51.670;5.808;2024-02-21T00:47:04;17.80;;;6.78;;
62584;SDS011;48643;51.670;5.808;2024-02-21T00:49:31;18.58;;;7.25;;
62584;SDS011;48643;51.670;5.808;2024-02-21T00:51:58;17.40;;;7.00;;
62584;SDS011;48643;51.670;5.808;2024-02-21T00:54:25;19.13;;;7.32;;
62584;SDS011;48643;51.670;5.808;2024-02-21T00:57:01;15.95;;;6.60;;
62584;SDS011;48643;51.670;5.808;2024-02-21T00:59:28;17.02;;;7.07;;
62584;SDS011;48643;51.670;5.808;2024-02-21T01:01:55;16.88;;;7.00;;
62584;SDS011;48643;51.670;5.808;2024-02-21T01:04:23;16.38;;;6.43;;
62584;SDS011;48643;51.670;5.808;2024-02-21T01:06:51;21.35;;;7.10;;
62584;SDS011;48643;51.670;5.808;2024-02-21T01:09:17;23.33;;;7.00;;
62584;SDS011;48643;51.670;5.808;2024-02-21T01:11:45;18.63;;;6.90;;
62584;SDS011;48643;51.670;5.808;2024-02-21T01:14:12;19.52;;;7.30;;
62584;SDS011;48643;51.670;5.808;2024-02-21T01:16:39;16.45;;;6.50;;
62584;SDS011;48643;51.670;5.808;2024-02-21T01:19:06;15.05;;;6.65;;
62584;SDS011;48643;51.670;5.808;2024-02-21T01:21:33;17.88;;;6.65;;
62584;SDS011;48643;51.670;5.808;2024-02-21T01:24:00;16.50;;;6.85;;
62584;SDS011;48643;51.670;5.808;2024-02-21T01:26:26;19.15;;;7.78;;
62584;SDS011;48643;51.670;5.808;2024-02-21T01:28:53;16.55;;;7.07;;
62584;SDS011;48643;51.670;5.808;2024-02-21T01:31:20;15.00;;;6.38;;
62584;SDS011;48643;51.670;5.808;2024-02-21T01:33:47;15.80;;;7.07;;
62584;SDS011;48643;51.670;5.808;2024-02-21T01:36:14;18.25;;;7.10;;
62584;SDS011;48643;51.670;5.808;2024-02-21T01:38:41;14.10;;;6.35;;
62584;SDS011;48643;51.670;5.808;2024-02-21T01:41:09;17.80;;;7.28;;
62584;SDS011;48643;51.670;5.808;2024-02-21T01:43:35;17.42;;;6.50;;
62584;SDS011;48643;51.670;5.808;2024-02-21T01:46:02;18.33;;;6.60;;
62584;SDS011;48643;51.670;5.808;2024-02-21T01:48:29;13.43;;;6.47;;
62584;SDS011;48643;51.670;5.808;2024-02-21T01:50:57;19.55;;;6.95;;
62584;SDS011;48643;51.670;5.808;2024-02-21T01:53:30;19.48;;;6.38;;
62584;SDS011;48643;51.670;5.808;2024-02-21T01:56:00;17.67;;;6.40;;
62584;SDS011;48643;51.670;5.808;2024-02-21T01:58:29;15.25;;;6.38;;
62584;SDS011;48643;51.670;5.808;2024-02-21T02:00:57;15.48;;;6.20;;
62584;SDS011;48643;51.670;5.808;2024-02-21T02:03:24;17.45;;;6.38;;
62584;SDS011;48643;51.670;5.808;2024-02-21T02:05:52;11.30;;;5.65;;
62584;SDS011;48643;51.670;5.808;2024-02-21T02:08:19;18.13;;;6.05;;
62584;SDS011;48643;51.670;5.808;2024-02-21T02:10:48;17.50;;;6.30;;
62584;SDS011;48643;51.670;5.808;2024-02-21T02:13:16;16.48;;;6.00;;
62584;SDS011;48643;51.670;5.808;2024-02-21T02:15:47;17.52;;;6.05;;
62584;SDS011;48643;51.670;5.808;2024-02-21T02:18:15;19.95;;;6.07;;
62584;SDS011;48643;51.670;5.808;2024-02-21T02:20:44;15.67;;;5.80;;
62584;SDS011;48643;51.670;5.808;2024-02-21T02:23:12;16.92;;;5.95;;
62584;SDS011;48643;51.670;5.808;2024-02-21T02:25:58;17.90;;;5.68;;
62584;SDS011;48643;51.670;5.808;2024-02-21T02:28:27;19.40;;;6.00;;
62584;SDS011;48643;51.670;5.808;2024-02-21T02:30:54;13.30;;;5.75;;
62584;SDS011;48643;51.670;5.808;2024-02-21T02:33:21;16.20;;;5.53;;
62584;SDS011;48643;51.670;5.808;2024-02-21T02:35:48;18.65;;;6.18;;
62584;SDS011;48643;51.670;5.808;2024-02-21T02:38:15;12.80;;;5.03;;
62584;SDS011;48643;51.670;5.808;2024-02-21T02:40:42;15.05;;;5.25;;
62584;SDS011;48643;51.670;5.808;2024-02-21T02:43:09;16.02;;;5.32;;
62584;SDS011;48643;51.670;5.808;2024-02-21T02:45:36;15.43;;;5.90;;
62584;SDS011;48643;51.670;5.808;2024-02-21T02:48:03;10.60;;;4.93;;
62584;SDS011;48643;51.670;5.808;2024-02-21T02:50:31;13.10;;;5.00;;
62584;SDS011;48643;51.670;5.808;2024-02-21T02:52:58;15.27;;;5.50;;
62584;SDS011;48643;51.670;5.808;2024-02-21T02:55:25;10.80;;;4.72;;
62584;SDS011;48643;51.670;5.808;2024-02-21T02:57:54;12.40;;;4.60;;
62584;SDS011;48643;51.670;5.808;2024-02-21T03:00:22;8.75;;;4.40;;
62584;SDS011;48643;51.670;5.808;2024-02-21T03:02:49;13.85;;;5.38;;
62584;SDS011;48643;51.670;5.808;2024-02-21T03:05:17;14.15;;;5.45;;
62584;SDS011;48643;51.670;5.808;2024-02-21T03:10:13;11.00;;;4.45;;
62584;SDS011;48643;51.670;5.808;2024-02-21T03:12:43;15.55;;;5.15;;
62584;SDS011;48643;51.670;5.808;2024-02-21T03:15:10;12.60;;;4.50;;
62584;SDS011;48643;51.670;5.808;2024-02-21T03:17:38;11.43;;;4.97;;
62584;SDS011;48643;51.670;5.808;2024-02-21T03:20:06;17.05;;;5.10;;
62584;SDS011;48643;51.670;5.808;2024-02-21T03:22:39;11.63;;;4.95;;
62584;SDS011;48643;51.670;5.808;2024-02-21T03:25:08;11.98;;;4.43;;
62584;SDS011;48643;51.670;5.808;2024-02-21T03:27:36;12.25;;;4.68;;
62584;SDS011;48643;51.670;5.808;2024-02-21T03:30:04;12.75;;;4.95;;
62584;SDS011;48643;51.670;5.808;2024-02-21T03:32:31;13.73;;;4.78;;
62584;SDS011;48643;51.670;5.808;2024-02-21T03:34:58;12.25;;;4.75;;
62584;SDS011;48643;51.670;5.808;2024-02-21T03:37:25;10.38;;;4.40;;
62584;SDS011;48643;51.670;5.808;2024-02-21T03:39:52;11.93;;;4.68;;
62584;SDS011;48643;51.670;5.808;2024-02-21T03:42:19;14.32;;;4.82;;
62584;SDS011;48643;51.670;5.808;2024-02-21T03:44:46;13.15;;;4.90;;
62584;SDS011;48643;51.670;5.808;2024-02-21T03:47:12;16.77;;;4.80;;
62584;SDS011;48643;51.670;5.808;2024-02-21T03:49:39;10.45;;;4.03;;
62584;SDS011;48643;51.670;5.808;2024-02-21T03:52:06;10.65;;;4.32;;
62584;SDS011;48643;51.670;5.808;2024-02-21T03:54:34;11.00;;;4.25;;
62584;SDS011;48643;51.670;5.808;2024-02-21T03:57:01;8.60;;;4.32;;
62584;SDS011;48643;51.670;5.808;2024-02-21T03:59:29;9.98;;;4.00;;
62584;SDS011;48643;51.670;5.808;2024-02-21T04:01:56;11.30;;;4.00;;
62584;SDS011;48643;51.670;5.808;2024-02-21T04:04:23;12.13;;;4.38;;
62584;SDS011;48643;51.670;5.808;2024-02-21T04:06:50;12.15;;;4.03;;
62584;SDS011;48643;51.670;5.808;2024-02-21T04:09:18;12.25;;;4.10;;
62584;SDS011;48643;51.670;5.808;2024-02-21T04:11:45;12.65;;;4.43;;
62584;SDS011;48643;51.670;5.808;2024-02-21T04:14:12;8.75;;;4.05;;
62584;SDS011;48643;51.670;5.808;2024-02-21T04:16:39;13.45;;;4.50;;
62584;SDS011;48643;51.670;5.808;2024-02-21T04:19:06;11.48;;;4.75;;
62584;SDS011;48643;51.670;5.808;2024-02-21T04:21:34;10.65;;;4.40;;
62584;SDS011;48643;51.670;5.808;2024-02-21T04:24:01;11.82;;;4.25;;
62584;SDS011;48643;51.670;5.808;2024-02-21T04:26:30;9.82;;;4.05;;
62584;SDS011;48643;51.670;5.808;2024-02-21T04:28:56;10.75;;;3.97;;
62584;SDS011;48643;51.670;5.808;2024-02-21T04:31:24;8.43;;;3.75;;
62584;SDS011;48643;51.670;5.808;2024-02-21T04:33:51;9.38;;;3.85;;
62584;SDS011;48643;51.670;5.808;2024-02-21T04:36:19;12.02;;;4.13;;
62584;SDS011;48643;51.670;5.808;2024-02-21T04:38:46;9.25;;;3.80;;
62584;SDS011;48643;51.670;5.808;2024-02-21T04:41:13;12.65;;;4.57;;
62584;SDS011;48643;51.670;5.808;2024-02-21T04:43:40;12.98;;;4.00;;
62584;SDS011;48643;51.670;5.808;2024-02-21T04:46:07;10.02;;;4.10;;
62584;SDS011;48643;51.670;5.808;2024-02-21T04:48:34;8.68;;;4.10;;
62584;SDS011;48643;51.670;5.808;2024-02-21T04:51:01;11.23;;;4.28;;
62584;SDS011;48643;51.670;5.808;2024-02-21T04:53:27;8.60;;;4.00;;
62584;SDS011;48643;51.670;5.808;2024-02-21T04:55:54;10.50;;;4.22;;
62584;SDS011;48643;51.670;5.808;2024-02-21T04:58:21;10.55;;;4.00;;
62584;SDS011;48643;51.670;5.808;2024-02-21T05:00:48;13.75;;;4.15;;
62584;SDS011;48643;51.670;5.808;2024-02-21T05:03:15;8.82;;;3.90;;
62584;SDS011;48643;51.670;5.808;2024-02-21T05:05:42;8.82;;;3.70;;
62584;SDS011;48643;51.670;5.808;2024-02-21T05:08:10;10.65;;;3.83;;
62584;SDS011;48643;51.670;5.808;2024-02-21T05:10:37;10.32;;;4.07;;
62584;SDS011;48643;51.670;5.808;2024-02-21T05:13:04;10.57;;;3.90;;
62584;SDS011;48643;51.670;5.808;2024-02-21T05:15:31;13.40;;;4.43;;
62584;SDS011;48643;51.670;5.808;2024-02-21T05:17:59;10.93;;;3.88;;
62584;SDS011;48643;51.670;5.808;2024-02-21T05:20:27;13.65;;;4.35;;
62584;SDS011;48643;51.670;5.808;2024-02-21T05:22:54;13.60;;;4.22;;
62584;SDS011;48643;51.670;5.808;2024-02-21T05:25:21;11.55;;;4.50;;
62584;SDS011;48643;51.670;5.808;2024-02-21T05:27:50;13.15;;;4.57;;
62584;SDS011;48643;51.670;5.808;2024-02-21T05:30:19;10.35;;;4.43;;
62584;SDS011;48643;51.670;5.808;2024-02-21T05:32:46;10.30;;;4.65;;
62584;SDS011;48643;51.670;5.808;2024-02-21T05:35:13;11.95;;;4.88;;
62584;SDS011;48643;51.670;5.808;2024-02-21T05:37:40;13.05;;;4.57;;
62584;SDS011;48643;51.670;5.808;2024-02-21T05:40:07;14.00;;;4.93;;
62584;SDS011;48643;51.670;5.808;2024-02-21T05:42:34;12.02;;;4.57;;
62584;SDS011;48643;51.670;5.808;2024-02-21T05:45:01;17.83;;;5.35;;
62584;SDS011;48643;51.670;5.808;2024-02-21T05:47:29;14.75;;;5.35;;
62584;SDS011;48643;51.670;5.808;2024-02-21T05:49:56;13.30;;;5.10;;
62584;SDS011;48643;51.670;5.808;2024-02-21T05:52:23;15.43;;;5.20;;
62584;SDS011;48643;51.670;5.808;2024-02-21T05:54:50;18.80;;;5.80;;
62584;SDS011;48643;51.670;5.808;2024-02-21T05:57:17;11.40;;;5.05;;
62584;SDS011;48643;51.670;5.808;2024-02-21T05:59:44;14.10;;;5.05;;
62584;SDS011;48643;51.670;5.808;2024-02-21T06:02:11;12.65;;;5.25;;
62584;SDS011;48643;51.670;5.808;2024-02-21T06:04:39;11.95;;;4.82;;
62584;SDS011;48643;51.670;5.808;2024-02-21T06:07:06;14.38;;;5.75;;
62584;SDS011;48643;51.670;5.808;2024-02-21T06:09:34;13.82;;;5.35;;
62584;SDS011;48643;51.670;5.808;2024-02-21T06:12:00;12.65;;;5.32;;
62584;SDS011;48643;51.670;5.808;2024-02-21T06:14:27;16.77;;;5.78;;
62584;SDS011;48643;51.670;5.808;2024-02-21T06:16:54;14.52;;;5.60;;
62584;SDS011;48643;51.670;5.808;2024-02-21T06:19:21;14.05;;;5.78;;
62584;SDS011;48643;51.670;5.808;2024-02-21T06:21:48;10.43;;;5.35;;
62584;SDS011;48643;51.670;5.808;2024-02-21T06:24:16;12.93;;;5.72;;
62584;SDS011;48643;51.670;5.808;2024-02-21T06:26:43;12.75;;;5.63;;
62584;SDS011;48643;51.670;5.808;2024-02-21T06:29:11;15.07;;;5.50;;
62584;SDS011;48643;51.670;5.808;2024-02-21T06:31:40;10.40;;;5.60;;
62584;SDS011;48643;51.670;5.808;2024-02-21T06:34:07;16.10;;;6.03;;
62584;SDS011;48643;51.670;5.808;2024-02-21T06:36:34;14.13;;;5.70;;
62584;SDS011;48643;51.670;5.808;2024-02-21T06:39:01;12.18;;;5.10;;
62584;SDS011;48643;51.670;5.808;2024-02-21T06:41:33;14.27;;;5.88;;
62584;SDS011;48643;51.670;5.808;2024-02-21T06:44:04;16.27;;;5.82;;
62584;SDS011;48643;51.670;5.808;2024-02-21T06:46:31;13.40;;;4.95;;
62584;SDS011;48643;51.670;5.808;2024-02-21T06:49:01;10.45;;;5.30;;
62584;SDS011;48643;51.670;5.808;2024-02-21T06:51:30;13.27;;;5.30;;
62584;SDS011;48643;51.670;5.808;2024-02-21T06:53:57;16.40;;;5.55;;
62584;SDS011;48643;51.670;5.808;2024-02-21T06:56:24;15.35;;;5.72;;
62584;SDS011;48643;51.670;5.808;2024-02-21T06:58:58;15.90;;;5.85;;
62584;SDS011;48643;51.670;5.808;2024-02-21T07:01:25;16.52;;;6.30;;
62584;SDS011;48643;51.670;5.808;2024-02-21T07:03:52;14.13;;;6.25;;
62584;SDS011;48643;51.670;5.808;2024-02-21T07:06:19;14.55;;;5.88;;
62584;SDS011;48643;51.670;5.808;2024-02-21T07:08:46;14.98;;;6.25;;
62584;SDS011;48643;51.670;5.808;2024-02-21T07:11:12;17.83;;;6.15;;
62584;SDS011;48643;51.670;5.808;2024-02-21T07:13:40;17.58;;;6.20;;
62584;SDS011;48643;51.670;5.808;2024-02-21T07:16:07;16.30;;;6.18;;
62584;SDS011;48643;51.670;5.808;2024-02-21T07:18:34;12.60;;;5.90;;
62584;SDS011;48643;51.670;5.808;2024-02-21T07:21:01;16.25;;;6.45;;
62584;SDS011;48643;51.670;5.808;2024-02-21T07:23:28;20.05;;;6.05;;
62584;SDS011;48643;51.670;5.808;2024-02-21T07:25:55;13.60;;;6.22;;
62584;SDS011;48643;51.670;5.808;2024-02-21T07:28:22;14.05;;;6.18;;
62584;SDS011;48643;51.670;5.808;2024-02-21T07:30:49;14.05;;;6.25;;
62584;SDS011;48643;51.670;5.808;2024-02-21T07:33:15;16.65;;;6.30;;
62584;SDS011;48643;51.670;5.808;2024-02-21T07:35:43;11.52;;;5.03;;
62584;SDS011;48643;51.670;5.808;2024-02-21T07:38:11;11.93;;;5.22;;
62584;SDS011;48643;51.670;5.808;2024-02-21T07:40:39;14.10;;;5.60;;
62584;SDS011;48643;51.670;5.808;2024-02-21T07:43:06;17.33;;;6.30;;
62584;SDS011;48643;51.670;5.808;2024-02-21T07:45:33;13.60;;;6.05;;
62584;SDS011;48643;51.670;5.808;2024-02-21T07:48:00;18.65;;;5.97;;
62584;SDS011;48643;51.670;5.808;2024-02-21T07:50:28;12.88;;;6.00;;
62584;SDS011;48643;51.670;5.808;2024-02-21T07:52:55;13.45;;;5.90;;
62584;SDS011;48643;51.670;5.808;2024-02-21T07:55:22;16.13;;;5.90;;
62584;SDS011;48643;51.670;5.808;2024-02-21T07:57:49;12.95;;;5.63;;
62584;SDS011;48643;51.670;5.808;2024-02-21T08:00:16;14.93;;;5.72;;
62584;SDS011;48643;51.670;5.808;2024-02-21T08:02:47;20.40;;;6.47;;
62584;SDS011;48643;51.670;5.808;2024-02-21T08:05:15;14.43;;;6.00;;
62584;SDS011;48643;51.670;5.808;2024-02-21T08:07:42;14.23;;;6.18;;
62584;SDS011;48643;51.670;5.808;2024-02-21T08:10:10;16.83;;;6.80;;
62584;SDS011;48643;51.670;5.808;2024-02-21T08:12:37;14.93;;;6.15;;
62584;SDS011;48643;51.670;5.808;2024-02-21T08:15:05;18.55;;;6.25;;
62584;SDS011;48643;51.670;5.808;2024-02-21T08:17:34;22.35;;;6.57;;
62584;SDS011;48643;51.670;5.808;2024-02-21T08:20:01;16.63;;;6.40;;
62584;SDS011;48643;51.670;5.808;2024-02-21T08:22:31;14.18;;;6.60;;
62584;SDS011;48643;51.670;5.808;2024-02-21T08:24:58;15.00;;;6.25;;
62584;SDS011;48643;51.670;5.808;2024-02-21T08:27:25;15.05;;;5.85;;
62584;SDS011;48643;51.670;5.808;2024-02-21T08:29:54;14.52;;;6.50;;
62584;SDS011;48643;51.670;5.808;2024-02-21T08:32:21;12.35;;;5.90;;
62584;SDS011;48643;51.670;5.808;2024-02-21T08:34:48;13.85;;;5.60;;
62584;SDS011;48643;51.670;5.808;2024-02-21T08:37:15;12.00;;;5.82;;
62584;SDS011;48643;51.670;5.808;2024-02-21T08:39:45;16.08;;;6.20;;
62584;SDS011;48643;51.670;5.808;2024-02-21T08:42:13;14.90;;;5.80;;
62584;SDS011;48643;51.670;5.808;2024-02-21T08:44:40;15.88;;;6.30;;
62584;SDS011;48643;51.670;5.808;2024-02-21T08:47:09;13.77;;;5.88;;
62584;SDS011;48643;51.670;5.808;2024-02-21T08:49:36;16.88;;;6.07;;
62584;SDS011;48643;51.670;5.808;2024-02-21T08:52:04;11.93;;;5.60;;
62584;SDS011;48643;51.670;5.808;2024-02-21T08:54:31;19.23;;;6.28;;
62584;SDS011;48643;51.670;5.808;2024-02-21T08:57:02;13.60;;;5.55;;
62584;SDS011;48643;51.670;5.808;2024-02-21T08:59:29;15.15;;;5.80;;
62584;SDS011;48643;51.670;5.808;2024-02-21T09:01:56;13.25;;;5.30;;
62584;SDS011;48643;51.670;5.808;2024-02-21T09:04:23;14.75;;;5.53;;
62584;SDS011;48643;51.670;5.808;2024-02-21T09:06:50;20.00;;;6.03;;
62584;SDS011;48643;51.670;5.808;2024-02-21T09:09:19;16.92;;;5.60;;
62584;SDS011;48643;51.670;5.808;2024-02-21T09:11:46;12.40;;;5.47;;
62584;SDS011;48643;51.670;5.808;2024-02-21T09:14:13;12.23;;;5.43;;
62584;SDS011;48643;51.670;5.808;2024-02-21T09:16:40;13.73;;;5.75;;
62584;SDS011;48643;51.670;5.808;2024-02-21T09:19:07;10.63;;;5.28;;
62584;SDS011;48643;51.670;5.808;2024-02-21T09:21:37;13.95;;;5.28;;
62584;SDS011;48643;51.670;5.808;2024-02-21T09:24:07;13.30;;;5.50;;
62584;SDS011;48643;51.670;5.808;2024-02-21T09:26:34;9.02;;;4.75;;
62584;SDS011;48643;51.670;5.808;2024-02-21T09:29:01;13.35;;;4.97;;
62584;SDS011;48643;51.670;5.808;2024-02-21T09:31:28;13.10;;;4.85;;
62584;SDS011;48643;51.670;5.808;2024-02-21T09:33:55;10.65;;;4.60;;
62584;SDS011;48643;51.670;5.808;2024-02-21T09:36:22;9.27;;;5.00;;
62584;SDS011;48643;51.670;5.808;2024-02-21T09:38:49;9.15;;;4.50;;
62584;SDS011;48643;51.670;5.808;2024-02-21T09:41:16;9.68;;;4.85;;
62584;SDS011;48643;51.670;5.808;2024-02-21T09:43:50;11.13;;;4.65;;
62584;SDS011;48643;51.670;5.808;2024-02-21T09:46:22;9.68;;;4.47;;
62584;SDS011;48643;51.670;5.808;2024-02-21T09:51:34;7.22;;;4.00;;
62584;SDS011;48643;51.670;5.808;2024-02-21T09:54:01;8.98;;;4.55;;
62584;SDS011;48643;51.670;5.808;2024-02-21T09:56:41;10.10;;;4.30;;
62584;SDS011;48643;51.670;5.808;2024-02-21T09:59:08;13.20;;;4.50;;
62584;SDS011;48643;51.670;5.808;2024-02-21T10:01:36;8.50;;;4.30;;
62584;SDS011;48643;51.670;5.808;2024-02-21T10:04:03;9.63;;;4.28;;
62584;SDS011;48643;51.670;5.808;2024-02-21T10:06:31;9.55;;;4.43;;
62584;SDS011;48643;51.670;5.808;2024-02-21T10:08:59;8.60;;;4.20;;
62584;SDS011;48643;51.670;5.808;2024-02-21T10:11:26;8.88;;;3.92;;
62584;SDS011;48643;51.670;5.808;2024-02-21T10:14:03;10.63;;;4.30;;
62584;SDS011;48643;51.670;5.808;2024-02-21T10:16:33;8.18;;;4.45;;
62584;SDS011;48643;51.670;5.808;2024-02-21T10:19:00;8.65;;;4.35;;
62584;SDS011;48643;51.670;5.808;2024-02-21T10:21:27;9.10;;;4.22;;
62584;SDS011;48643;51.670;5.808;2024-02-21T10:23:55;8.68;;;4.10;;
62584;SDS011;48643;51.670;5.808;2024-02-21T10:26:22;8.88;;;4.20;;
62584;SDS011;48643;51.670;5.808;2024-02-21T10:28:49;10.07;;;4.47;;
62584;SDS011;48643;51.670;5.808;2024-02-21T10:31:22;6.93;;;3.90;;
62584;SDS011;48643;51.670;5.808;2024-02-21T10:33:57;8.15;;;4.00;;
62584;SDS011;48643;51.670;5.808;2024-02-21T10:36:25;10.80;;;3.80;;
62584;SDS011;48643;51.670;5.808;2024-02-21T10:38:52;10.88;;;4.10;;
62584;SDS011;48643;51.670;5.808;2024-02-21T10:41:21;9.02;;;4.10;;
62584;SDS011;48643;51.670;5.808;2024-02-21T10:43:50;11.63;;;4.40;;
62584;SDS011;48643;51.670;5.808;2024-02-21T10:46:21;12.63;;;5.63;;
62584;SDS011;48643;51.670;5.808;2024-02-21T10:49:03;10.63;;;5.18;;
62584;SDS011;48643;51.670;5.808;2024-02-21T10:51:37;10.02;;;4.30;;
62584;SDS011;48643;51.670;5.808;2024-02-21T10:56:40;8.95;;;4.68;;
62584;SDS011;48643;51.670;5.808;2024-02-21T10:59:07;7.32;;;4.50;;
62584;SDS011;48643;51.670;5.808;2024-02-21T11:01:34;7.78;;;4.47;;
62584;SDS011;48643;51.670;5.808;2024-02-21T11:04:03;11.27;;;4.70;;
62584;SDS011;48643;51.670;5.808;2024-02-21T11:06:31;8.95;;;4.00;;
62584;SDS011;48643;51.670;5.808;2024-02-21T11:09:06;8.65;;;3.80;;
62584;SDS011;48643;51.670;5.808;2024-02-21T11:11:35;9.07;;;4.10;;
62584;SDS011;48643;51.670;5.808;2024-02-21T11:14:07;10.57;;;4.28;;
62584;SDS011;48643;51.670;5.808;2024-02-21T11:16:39;8.60;;;4.10;;
62584;SDS011;48643;51.670;5.808;2024-02-21T11:21:53;7.60;;;4.38;;
62584;SDS011;48643;51.670;5.808;2024-02-21T11:24:25;9.30;;;4.32;;
62584;SDS011;48643;51.670;5.808;2024-02-21T11:29:48;8.18;;;5.00;;
62584;SDS011;48643;51.670;5.808;2024-02-21T11:32:19;8.77;;;4.18;;
62584;SDS011;48643;51.670;5.808;2024-02-21T11:34:59;10.80;;;4.50;;
62584;SDS011;48643;51.670;5.808;2024-02-21T11:37:34;8.02;;;4.05;;
62584;SDS011;48643;51.670;5.808;2024-02-21T11:40:06;7.50;;;4.28;;
62584;SDS011;48643;51.670;5.808;2024-02-21T11:42:37;8.25;;;3.90;;
62584;SDS011;48643;51.670;5.808;2024-02-21T11:45:04;10.45;;;4.00;;
62584;SDS011;48643;51.670;5.808;2024-02-21T11:47:32;7.67;;;3.90;;
62584;SDS011;48643;51.670;5.808;2024-02-21T11:50:00;7.53;;;4.32;;
62584;SDS011;48643;51.670;5.808;2024-02-21T11:52:27;11.65;;;4.10;;
62584;SDS011;48643;51.670;5.808;2024-02-21T11:54:55;6.88;;;3.70;;
62584;SDS011;48643;51.670;5.808;2024-02-21T11:57:24;9.18;;;3.92;;
62584;SDS011;48643;51.670;5.808;2024-02-21T11:59:51;7.18;;;3.65;;
62584;SDS011;48643;51.670;5.808;2024-02-21T12:02:25;15.07;;;3.80;;
62584;SDS011;48643;51.670;5.808;2024-02-21T12:04:53;6.13;;;3.33;;
62584;SDS011;48643;51.670;5.808;2024-02-21T12:07:21;11.32;;;3.90;;
62584;SDS011;48643;51.670;5.808;2024-02-21T12:09:50;13.13;;;4.17;;
62584;SDS011;48643;51.670;5.808;2024-02-21T12:12:19;6.50;;;3.38;;
62584;SDS011;48643;51.670;5.808;2024-02-21T12:14:53;10.85;;;3.88;;
62584;SDS011;48643;51.670;5.808;2024-02-21T12:17:26;11.55;;;4.07;;
62584;SDS011;48643;51.670;5.808;2024-02-21T12:19:53;9.23;;;3.70;;
62584;SDS011;48643;51.670;5.808;2024-02-21T12:22:20;7.05;;;3.58;;
62584;SDS011;48643;51.670;5.808;2024-02-21T12:24:47;8.15;;;3.45;;
62584;SDS011;48643;51.670;5.808;2024-02-21T12:27:15;7.18;;;3.58;;
62584;SDS011;48643;51.670;5.808;2024-02-21T12:29:42;6.32;;;3.03;;
62584;SDS011;48643;51.670;5.808;2024-02-21T12:32:08;10.35;;;3.55;;
62584;SDS011;48643;51.670;5.808;2024-02-21T12:34:35;9.05;;;3.50;;
62584;SDS011;48643;51.670;5.808;2024-02-21T12:37:18;8.27;;;3.72;;
62584;SDS011;48643;51.670;5.808;2024-02-21T12:39:46;6.25;;;3.28;;
62584;SDS011;48643;51.670;5.808;2024-02-21T12:42:13;7.78;;;3.40;;
62584;SDS011;48643;51.670;5.808;2024-02-21T12:44:40;8.85;;;3.47;;
62584;SDS011;48643;51.670;5.808;2024-02-21T12:47:08;5.95;;;3.22;;
62584;SDS011;48643;51.670;5.808;2024-02-21T12:49:35;8.40;;;3.55;;
62584;SDS011;48643;51.670;5.808;2024-02-21T12:52:04;6.93;;;3.30;;
62584;SDS011;48643;51.670;5.808;2024-02-21T12:54:30;6.43;;;3.33;;
62584;SDS011;48643;51.670;5.808;2024-02-21T12:56:57;8.93;;;3.03;;
62584;SDS011;48643;51.670;5.808;2024-02-21T12:59:29;6.88;;;3.05;;
62584;SDS011;48643;51.670;5.808;2024-02-21T13:01:56;8.68;;;3.22;;
62584;SDS011;48643;51.670;5.808;2024-02-21T13:04:23;8.88;;;3.60;;
62584;SDS011;48643;51.670;5.808;2024-02-21T13:06:54;7.55;;;3.20;;
62584;SDS011;48643;51.670;5.808;2024-02-21T13:09:22;10.48;;;3.70;;
62584;SDS011;48643;51.670;5.808;2024-02-21T13:11:48;7.18;;;3.10;;
62584;SDS011;48643;51.670;5.808;2024-02-21T13:14:17;6.88;;;3.17;;
62584;SDS011;48643;51.670;5.808;2024-02-21T13:16:44;8.18;;;3.30;;
62584;SDS011;48643;51.670;5.808;2024-02-21T13:19:11;9.27;;;3.67;;
62584;SDS011;48643;51.670;5.808;2024-02-21T13:21:40;14.90;;;3.53;;
62584;SDS011;48643;51.670;5.808;2024-02-21T13:24:08;7.75;;;3.17;;
62584;SDS011;48643;51.670;5.808;2024-02-21T13:26:35;7.90;;;3.63;;
62584;SDS011;48643;51.670;5.808;2024-02-21T13:29:02;10.25;;;3.22;;
62584;SDS011;48643;51.670;5.808;2024-02-21T13:31:29;9.60;;;3.78;;
62584;SDS011;48643;51.670;5.808;2024-02-21T13:33:56;7.25;;;3.30;;
62584;SDS011;48643;51.670;5.808;2024-02-21T13:36:23;9.82;;;3.63;;
62584;SDS011;48643;51.670;5.808;2024-02-21T13:38:50;8.50;;;3.28;;
62584;SDS011;48643;51.670;5.808;2024-02-21T13:41:17;7.72;;;3.10;;
62584;SDS011;48643;51.670;5.808;2024-02-21T13:43:44;11.23;;;3.35;;
62584;SDS011;48643;51.670;5.808;2024-02-21T13:46:13;6.22;;;3.00;;
62584;SDS011;48643;51.670;5.808;2024-02-21T13:48:40;9.20;;;3.67;;
62584;SDS011;48643;51.670;5.808;2024-02-21T13:51:07;8.55;;;3.20;;
62584;SDS011;48643;51.670;5.808;2024-02-21T13:53:34;8.50;;;3.53;;
62584;SDS011;48643;51.670;5.808;2024-02-21T13:56:01;5.97;;;3.22;;
62584;SDS011;48643;51.670;5.808;2024-02-21T13:58:28;8.52;;;3.00;;
62584;SDS011;48643;51.670;5.808;2024-02-21T14:00:55;6.43;;;3.10;;
62584;SDS011;48643;51.670;5.808;2024-02-21T14:03:23;10.60;;;3.20;;
62584;SDS011;48643;51.670;5.808;2024-02-21T14:05:52;6.80;;;2.95;;
62584;SDS011;48643;51.670;5.808;2024-02-21T14:08:19;6.47;;;3.03;;
62584;SDS011;48643;51.670;5.808;2024-02-21T14:10:46;7.13;;;3.05;;
62584;SDS011;48643;51.670;5.808;2024-02-21T14:13:14;7.28;;;3.20;;
62584;SDS011;48643;51.670;5.808;2024-02-21T14:15:42;7.30;;;3.00;;
62584;SDS011;48643;51.670;5.808;2024-02-21T14:18:12;6.15;;;3.17;;
62584;SDS011;48643;51.670;5.808;2024-02-21T14:20:39;8.60;;;3.20;;
62584;SDS011;48643;51.670;5.808;2024-02-21T14:23:06;6.53;;;3.17;;
62584;SDS011;48643;51.670;5.808;2024-02-21T14:25:33;9.23;;;3.58;;
62584;SDS011;48643;51.670;5.808;2024-02-21T14:28:00;13.63;;;3.42;;
62584;SDS011;48643;51.670;5.808;2024-02-21T14:30:27;12.70;;;3.60;;
62584;SDS011;48643;51.670;5.808;2024-02-21T14:32:54;7.28;;;3.30;;
62584;SDS011;48643;51.670;5.808;2024-02-21T14:35:21;8.02;;;3.47;;
62584;SDS011;48643;51.670;5.808;2024-02-21T14:37:48;8.65;;;3.47;;
62584;SDS011;48643;51.670;5.808;2024-02-21T14:40:15;8.40;;;3.67;;
62584;SDS011;48643;51.670;5.808;2024-02-21T14:42:42;10.05;;;4.07;;
62584;SDS011;48643;51.670;5.808;2024-02-21T14:45:09;8.10;;;3.38;;
62584;SDS011;48643;51.670;5.808;2024-02-21T14:47:36;10.32;;;3.63;;
62584;SDS011;48643;51.670;5.808;2024-02-21T14:50:03;11.55;;;3.63;;
62584;SDS011;48643;51.670;5.808;2024-02-21T14:52:34;10.60;;;3.35;;
62584;SDS011;48643;51.670;5.808;2024-02-21T14:55:02;8.32;;;3.55;;